sensor_id;sensor_type;location;lat;lon;timestamp;temperature;humidity
3504;DHT22;1766;53.490;10.174;2023-02-27T00:01:14;5.30;38.30
3504;DHT22;1766;53.490;10.174;2023-02-27T00:03:16;5.30;38.30
3504;DHT22;1766;53.490;10.174;2023-02-27T00:05:19;5.30;38.50
3504;DHT22;1766;53.490;10.174;2023-02-27T00:07:22;5.40;38.60
3504;DHT22;1766;53.490;10.174;2023-02-27T00:09:26;5.30;38.50
3504;DHT22;1766;53.490;10.174;2023-02-27T00:11:28;5.20;38.40
3504;DHT22;1766;53.490;10.174;2023-02-27T00:13:30;5.20;38.50
3504;DHT22;1766;53.490;10.174;2023-02-27T00:15:32;5.30;38.50
3504;DHT22;1766;53.490;10.174;2023-02-27T00:17:34;5.20;38.60
3504;DHT22;1766;53.490;10.174;2023-02-27T00:19:36;5.10;38.50
3504;DHT22;1766;53.490;10.174;2023-02-27T00:21:38;5.20;38.50
3504;DHT22;1766;53.490;10.174;2023-02-27T00:23:40;5.10;38.50
3504;DHT22;1766;53.490;10.174;2023-02-27T00:25:43;5.10;38.60
3504;DHT22;1766;53.490;10.174;2023-02-27T00:27:44;5.10;38.60
3504;DHT22;1766;53.490;10.174;2023-02-27T00:29:46;5.10;38.60
3504;DHT22;1766;53.490;10.174;2023-02-27T00:31:48;5.10;38.60
3504;DHT22;1766;53.490;10.174;2023-02-27T00:33:50;5.10;38.60
3504;DHT22;1766;53.490;10.174;2023-02-27T00:35:54;5.10;38.70
3504;DHT22;1766;53.490;10.174;2023-02-27T00:37:56;5.10;38.80
3504;DHT22;1766;53.490;10.174;2023-02-27T00:39:59;5.10;39.30
3504;DHT22;1766;53.490;10.174;2023-02-27T00:42:02;5.10;38.80
3504;DHT22;1766;53.490;10.174;2023-02-27T00:44:04;5.00;38.60
3504;DHT22;1766;53.490;10.174;2023-02-27T00:46:06;5.00;38.70
3504;DHT22;1766;53.490;10.174;2023-02-27T00:48:09;4.90;38.70
3504;DHT22;1766;53.490;10.174;2023-02-27T00:50:11;5.00;38.80
3504;DHT22;1766;53.490;10.174;2023-02-27T00:52:13;5.00;38.80
3504;DHT22;1766;53.490;10.174;2023-02-27T00:54:15;4.90;38.80
3504;DHT22;1766;53.490;10.174;2023-02-27T00:56:17;5.00;38.90
3504;DHT22;1766;53.490;10.174;2023-02-27T00:58:20;5.00;38.80
3504;DHT22;1766;53.490;10.174;2023-02-27T01:00:22;5.00;38.90
3504;DHT22;1766;53.490;10.174;2023-02-27T01:02:25;5.00;39.00
3504;DHT22;1766;53.490;10.174;2023-02-27T01:04:27;5.00;39.00
3504;DHT22;1766;53.490;10.174;2023-02-27T01:06:28;4.90;38.90
3504;DHT22;1766;53.490;10.174;2023-02-27T01:08:30;5.00;39.00
3504;DHT22;1766;53.490;10.174;2023-02-27T01:10:32;5.00;39.00
3504;DHT22;1766;53.490;10.174;2023-02-27T01:12:34;5.00;39.00
3504;DHT22;1766;53.490;10.174;2023-02-27T01:14:37;5.00;39.00
3504;DHT22;1766;53.490;10.174;2023-02-27T01:16:38;4.90;39.00
3504;DHT22;1766;53.490;10.174;2023-02-27T01:18:40;4.90;38.90
3504;DHT22;1766;53.490;10.174;2023-02-27T01:20:42;5.00;38.90
3504;DHT22;1766;53.490;10.174;2023-02-27T01:22:44;5.00;39.00
3504;DHT22;1766;53.490;10.174;2023-02-27T01:24:46;4.90;39.10
3504;DHT22;1766;53.490;10.174;2023-02-27T01:26:48;4.90;39.10
3504;DHT22;1766;53.490;10.174;2023-02-27T01:28:51;5.00;39.30
3504;DHT22;1766;53.490;10.174;2023-02-27T01:30:55;5.00;39.30
3504;DHT22;1766;53.490;10.174;2023-02-27T01:32:56;6.50;40.40
3504;DHT22;1766;53.490;10.174;2023-02-27T01:34:58;4.80;39.10
3504;DHT22;1766;53.490;10.174;2023-02-27T01:37:00;4.90;39.20
3504;DHT22;1766;53.490;10.174;2023-02-27T01:39:02;4.90;39.30
3504;DHT22;1766;53.490;10.174;2023-02-27T01:41:04;4.80;39.20
3504;DHT22;1766;53.490;10.174;2023-02-27T01:43:13;4.80;39.30
3504;DHT22;1766;53.490;10.174;2023-02-27T01:45:28;4.80;39.40
3504;DHT22;1766;53.490;10.174;2023-02-27T01:47:33;4.80;39.40
3504;DHT22;1766;53.490;10.174;2023-02-27T01:49:35;4.80;39.40
3504;DHT22;1766;53.490;10.174;2023-02-27T01:51:41;4.80;39.30
3504;DHT22;1766;53.490;10.174;2023-02-27T01:53:48;4.80;39.30
3504;DHT22;1766;53.490;10.174;2023-02-27T01:55:52;4.80;39.40
3504;DHT22;1766;53.490;10.174;2023-02-27T01:57:56;4.80;39.40
3504;DHT22;1766;53.490;10.174;2023-02-27T01:59:58;4.80;39.40
3504;DHT22;1766;53.490;10.174;2023-02-27T02:02:00;4.80;39.40
3504;DHT22;1766;53.490;10.174;2023-02-27T02:04:10;4.80;39.50
3504;DHT22;1766;53.490;10.174;2023-02-27T02:06:15;4.80;39.40
3504;DHT22;1766;53.490;10.174;2023-02-27T02:08:18;4.70;39.30
3504;DHT22;1766;53.490;10.174;2023-02-27T02:10:21;4.70;39.40
3504;DHT22;1766;53.490;10.174;2023-02-27T02:12:28;4.70;39.30
3504;DHT22;1766;53.490;10.174;2023-02-27T02:14:31;4.70;39.90
3504;DHT22;1766;53.490;10.174;2023-02-27T02:16:43;4.70;39.30
3504;DHT22;1766;53.490;10.174;2023-02-27T02:18:58;4.60;39.40
3504;DHT22;1766;53.490;10.174;2023-02-27T02:21:28;4.60;39.40
3504;DHT22;1766;53.490;10.174;2023-02-27T02:24:05;4.60;39.40
3504;DHT22;1766;53.490;10.174;2023-02-27T02:26:37;4.60;39.40
3504;DHT22;1766;53.490;10.174;2023-02-27T02:29:03;4.50;39.30
3504;DHT22;1766;53.490;10.174;2023-02-27T02:31:36;4.60;39.50
3504;DHT22;1766;53.490;10.174;2023-02-27T02:34:03;4.60;39.50
3504;DHT22;1766;53.490;10.174;2023-02-27T02:38:58;4.60;39.50
3504;DHT22;1766;53.490;10.174;2023-02-27T02:41:10;4.60;39.40
3504;DHT22;1766;53.490;10.174;2023-02-27T02:43:23;4.60;39.40
3504;DHT22;1766;53.490;10.174;2023-02-27T02:45:33;4.50;39.40
3504;DHT22;1766;53.490;10.174;2023-02-27T02:47:50;4.50;39.40
3504;DHT22;1766;53.490;10.174;2023-02-27T02:50:04;4.50;39.50
3504;DHT22;1766;53.490;10.174;2023-02-27T02:52:17;4.50;39.50
3504;DHT22;1766;53.490;10.174;2023-02-27T02:54:35;4.40;39.50
3504;DHT22;1766;53.490;10.174;2023-02-27T02:56:42;4.50;39.50
3504;DHT22;1766;53.490;10.174;2023-02-27T02:58:50;4.40;39.50
3504;DHT22;1766;53.490;10.174;2023-02-27T03:01:00;4.30;39.30
3504;DHT22;1766;53.490;10.174;2023-02-27T03:03:11;4.40;39.40
3504;DHT22;1766;53.490;10.174;2023-02-27T03:05:19;4.30;39.40
3504;DHT22;1766;53.490;10.174;2023-02-27T03:07:28;4.30;39.40
3504;DHT22;1766;53.490;10.174;2023-02-27T03:09:36;4.30;39.50
3504;DHT22;1766;53.490;10.174;2023-02-27T03:11:42;4.30;39.50
3504;DHT22;1766;53.490;10.174;2023-02-27T03:13:47;4.30;39.50
3504;DHT22;1766;53.490;10.174;2023-02-27T03:15:57;4.30;39.50
3504;DHT22;1766;53.490;10.174;2023-02-27T03:18:05;4.20;39.50
3504;DHT22;1766;53.490;10.174;2023-02-27T03:20:13;4.30;39.60
3504;DHT22;1766;53.490;10.174;2023-02-27T03:22:21;4.30;39.60
3504;DHT22;1766;53.490;10.174;2023-02-27T03:24:27;4.30;39.60
3504;DHT22;1766;53.490;10.174;2023-02-27T03:26:36;4.30;39.60
3504;DHT22;1766;53.490;10.174;2023-02-27T03:28:49;4.20;39.50
3504;DHT22;1766;53.490;10.174;2023-02-27T03:31:04;4.30;39.70
3504;DHT22;1766;53.490;10.174;2023-02-27T03:33:12;4.20;39.60
3504;DHT22;1766;53.490;10.174;2023-02-27T03:35:17;4.40;39.80
3504;DHT22;1766;53.490;10.174;2023-02-27T03:37:26;4.30;39.70
3504;DHT22;1766;53.490;10.174;2023-02-27T03:39:38;4.30;39.40
3504;DHT22;1766;53.490;10.174;2023-02-27T03:41:49;4.30;39.80
3504;DHT22;1766;53.490;10.174;2023-02-27T03:43:57;4.30;39.80
3504;DHT22;1766;53.490;10.174;2023-02-27T03:46:08;4.30;39.80
3504;DHT22;1766;53.490;10.174;2023-02-27T03:48:12;4.30;39.90
3504;DHT22;1766;53.490;10.174;2023-02-27T03:50:14;4.30;39.90
3504;DHT22;1766;53.490;10.174;2023-02-27T03:52:17;4.30;40.10
3504;DHT22;1766;53.490;10.174;2023-02-27T03:54:23;4.40;40.10
3504;DHT22;1766;53.490;10.174;2023-02-27T03:56:31;4.30;40.10
3504;DHT22;1766;53.490;10.174;2023-02-27T03:58:39;4.30;40.10
3504;DHT22;1766;53.490;10.174;2023-02-27T04:00:41;4.30;40.00
3504;DHT22;1766;53.490;10.174;2023-02-27T04:02:45;4.40;40.10
3504;DHT22;1766;53.490;10.174;2023-02-27T04:04:49;4.40;40.10
3504;DHT22;1766;53.490;10.174;2023-02-27T04:06:55;4.40;40.00
3504;DHT22;1766;53.490;10.174;2023-02-27T04:09:23;4.40;40.20
3504;DHT22;1766;53.490;10.174;2023-02-27T04:11:39;4.40;40.20
3504;DHT22;1766;53.490;10.174;2023-02-27T04:13:58;4.30;40.10
3504;DHT22;1766;53.490;10.174;2023-02-27T04:16:28;4.40;40.10
3504;DHT22;1766;53.490;10.174;2023-02-27T04:18:50;4.40;40.10
3504;DHT22;1766;53.490;10.174;2023-02-27T04:21:04;4.40;40.10
3504;DHT22;1766;53.490;10.174;2023-02-27T04:23:12;4.40;40.10
3504;DHT22;1766;53.490;10.174;2023-02-27T04:25:31;4.40;40.10
3504;DHT22;1766;53.490;10.174;2023-02-27T04:27:48;4.30;40.60
3504;DHT22;1766;53.490;10.174;2023-02-27T04:29:57;4.30;39.90
3504;DHT22;1766;53.490;10.174;2023-02-27T04:32:07;4.30;39.90
3504;DHT22;1766;53.490;10.174;2023-02-27T04:34:19;4.30;39.90
3504;DHT22;1766;53.490;10.174;2023-02-27T04:36:27;4.40;40.00
3504;DHT22;1766;53.490;10.174;2023-02-27T04:38:36;4.30;39.90
3504;DHT22;1766;53.490;10.174;2023-02-27T04:40:44;4.20;39.90
3504;DHT22;1766;53.490;10.174;2023-02-27T04:42:50;4.30;40.00
3504;DHT22;1766;53.490;10.174;2023-02-27T04:44:58;4.30;40.00
3504;DHT22;1766;53.490;10.174;2023-02-27T04:47:03;4.30;40.20
3504;DHT22;1766;53.490;10.174;2023-02-27T04:49:09;4.30;40.30
3504;DHT22;1766;53.490;10.174;2023-02-27T04:51:19;4.30;40.30
3504;DHT22;1766;53.490;10.174;2023-02-27T04:53:25;4.20;40.20
3504;DHT22;1766;53.490;10.174;2023-02-27T04:55:32;4.30;40.20
3504;DHT22;1766;53.490;10.174;2023-02-27T04:57:39;4.40;40.30
3504;DHT22;1766;53.490;10.174;2023-02-27T04:59:50;4.40;40.30
3504;DHT22;1766;53.490;10.174;2023-02-27T05:02:00;4.40;40.30
3504;DHT22;1766;53.490;10.174;2023-02-27T05:04:04;4.40;39.90
3504;DHT22;1766;53.490;10.174;2023-02-27T05:06:09;4.40;40.30
3504;DHT22;1766;53.490;10.174;2023-02-27T05:08:17;4.40;40.30
3504;DHT22;1766;53.490;10.174;2023-02-27T05:10:27;4.20;40.20
3504;DHT22;1766;53.490;10.174;2023-02-27T05:12:36;4.40;40.30
3504;DHT22;1766;53.490;10.174;2023-02-27T05:14:44;4.30;40.90
3504;DHT22;1766;53.490;10.174;2023-02-27T05:16:53;4.40;40.90
3504;DHT22;1766;53.490;10.174;2023-02-27T05:19:00;4.30;40.30
3504;DHT22;1766;53.490;10.174;2023-02-27T05:21:11;4.30;40.40
3504;DHT22;1766;53.490;10.174;2023-02-27T05:23:24;4.40;40.50
3504;DHT22;1766;53.490;10.174;2023-02-27T05:25:35;4.40;40.60
3504;DHT22;1766;53.490;10.174;2023-02-27T05:27:43;4.40;40.50
3504;DHT22;1766;53.490;10.174;2023-02-27T05:29:49;4.40;40.50
3504;DHT22;1766;53.490;10.174;2023-02-27T05:31:54;4.40;40.60
3504;DHT22;1766;53.490;10.174;2023-02-27T05:34:05;4.40;40.60
3504;DHT22;1766;53.490;10.174;2023-02-27T05:36:14;4.40;40.60
3504;DHT22;1766;53.490;10.174;2023-02-27T05:38:22;4.40;40.70
3504;DHT22;1766;53.490;10.174;2023-02-27T05:40:32;4.50;41.40
3504;DHT22;1766;53.490;10.174;2023-02-27T05:42:40;4.40;41.40
3504;DHT22;1766;53.490;10.174;2023-02-27T05:44:50;4.60;41.50
3504;DHT22;1766;53.490;10.174;2023-02-27T05:46:58;4.60;41.50
3504;DHT22;1766;53.490;10.174;2023-02-27T05:49:03;4.70;41.60
3504;DHT22;1766;53.490;10.174;2023-02-27T05:51:08;4.60;41.60
3504;DHT22;1766;53.490;10.174;2023-02-27T05:53:14;4.70;41.70
3504;DHT22;1766;53.490;10.174;2023-02-27T05:55:22;4.80;41.80
3504;DHT22;1766;53.490;10.174;2023-02-27T05:57:28;4.80;41.90
3504;DHT22;1766;53.490;10.174;2023-02-27T05:59:35;4.80;41.90
3504;DHT22;1766;53.490;10.174;2023-02-27T06:01:43;4.80;41.90
3504;DHT22;1766;53.490;10.174;2023-02-27T06:03:46;4.90;41.80
3504;DHT22;1766;53.490;10.174;2023-02-27T06:05:49;4.80;41.60
3504;DHT22;1766;53.490;10.174;2023-02-27T06:07:52;4.90;41.90
3504;DHT22;1766;53.490;10.174;2023-02-27T06:09:54;4.90;41.70
3504;DHT22;1766;53.490;10.174;2023-02-27T06:11:58;5.00;41.80
3504;DHT22;1766;53.490;10.174;2023-02-27T06:14:01;4.90;41.70
3504;DHT22;1766;53.490;10.174;2023-02-27T06:16:03;4.90;41.70
3504;DHT22;1766;53.490;10.174;2023-02-27T06:18:05;5.00;41.80
3504;DHT22;1766;53.490;10.174;2023-02-27T06:20:09;4.90;41.70
3504;DHT22;1766;53.490;10.174;2023-02-27T06:22:12;4.90;41.70
3504;DHT22;1766;53.490;10.174;2023-02-27T06:24:13;4.90;41.50
3504;DHT22;1766;53.490;10.174;2023-02-27T06:26:15;4.90;41.50
3504;DHT22;1766;53.490;10.174;2023-02-27T06:28:17;4.90;41.50
3504;DHT22;1766;53.490;10.174;2023-02-27T06:30:19;4.90;41.60
3504;DHT22;1766;53.490;10.174;2023-02-27T06:32:21;4.90;41.60
3504;DHT22;1766;53.490;10.174;2023-02-27T06:34:24;4.90;41.60
3504;DHT22;1766;53.490;10.174;2023-02-27T06:36:28;4.80;41.50
3504;DHT22;1766;53.490;10.174;2023-02-27T06:38:29;5.00;41.60
3504;DHT22;1766;53.490;10.174;2023-02-27T06:40:31;4.90;41.50
3504;DHT22;1766;53.490;10.174;2023-02-27T06:42:33;4.90;41.20
3504;DHT22;1766;53.490;10.174;2023-02-27T06:44:35;4.90;41.50
3504;DHT22;1766;53.490;10.174;2023-02-27T06:46:37;4.90;41.20
3504;DHT22;1766;53.490;10.174;2023-02-27T06:48:38;4.90;41.60
3504;DHT22;1766;53.490;10.174;2023-02-27T06:50:40;4.90;41.60
3504;DHT22;1766;53.490;10.174;2023-02-27T06:52:43;4.90;41.60
3504;DHT22;1766;53.490;10.174;2023-02-27T06:54:45;4.90;41.70
3504;DHT22;1766;53.490;10.174;2023-02-27T06:56:47;4.90;41.80
3504;DHT22;1766;53.490;10.174;2023-02-27T06:58:51;5.00;41.70
3504;DHT22;1766;53.490;10.174;2023-02-27T07:00:52;5.00;42.00
3504;DHT22;1766;53.490;10.174;2023-02-27T07:02:54;5.00;42.00
3504;DHT22;1766;53.490;10.174;2023-02-27T07:04:56;5.00;41.90
3504;DHT22;1766;53.490;10.174;2023-02-27T07:06:58;5.00;41.90
3504;DHT22;1766;53.490;10.174;2023-02-27T07:09:01;5.10;42.20
3504;DHT22;1766;53.490;10.174;2023-02-27T07:11:03;5.10;42.20
3504;DHT22;1766;53.490;10.174;2023-02-27T07:13:05;5.20;42.30
3504;DHT22;1766;53.490;10.174;2023-02-27T07:15:07;5.20;42.30
3504;DHT22;1766;53.490;10.174;2023-02-27T07:17:10;5.20;42.40
3504;DHT22;1766;53.490;10.174;2023-02-27T07:19:11;5.20;42.40
3504;DHT22;1766;53.490;10.174;2023-02-27T07:21:13;5.30;42.50
3504;DHT22;1766;53.490;10.174;2023-02-27T07:23:15;5.30;42.60
3504;DHT22;1766;53.490;10.174;2023-02-27T07:25:18;5.40;42.80
3504;DHT22;1766;53.490;10.174;2023-02-27T07:27:20;5.40;42.70
3504;DHT22;1766;53.490;10.174;2023-02-27T07:29:22;5.40;42.70
3504;DHT22;1766;53.490;10.174;2023-02-27T07:31:24;5.50;42.80
3504;DHT22;1766;53.490;10.174;2023-02-27T07:33:26;5.60;42.80
3504;DHT22;1766;53.490;10.174;2023-02-27T07:35:28;5.60;42.90
3504;DHT22;1766;53.490;10.174;2023-02-27T07:37:29;5.60;42.90
3504;DHT22;1766;53.490;10.174;2023-02-27T07:39:31;5.70;43.00
3504;DHT22;1766;53.490;10.174;2023-02-27T07:41:35;5.80;43.10
3504;DHT22;1766;53.490;10.174;2023-02-27T07:43:37;5.80;43.10
3504;DHT22;1766;53.490;10.174;2023-02-27T07:45:39;5.90;43.10
3504;DHT22;1766;53.490;10.174;2023-02-27T07:47:40;6.00;43.30
3504;DHT22;1766;53.490;10.174;2023-02-27T07:49:42;6.10;43.40
3504;DHT22;1766;53.490;10.174;2023-02-27T07:51:44;6.30;43.60
3504;DHT22;1766;53.490;10.174;2023-02-27T07:53:46;6.30;43.60
3504;DHT22;1766;53.490;10.174;2023-02-27T07:55:47;6.40;43.80
3504;DHT22;1766;53.490;10.174;2023-02-27T07:57:50;6.40;43.70
3504;DHT22;1766;53.490;10.174;2023-02-27T07:59:52;6.50;43.90
3504;DHT22;1766;53.490;10.174;2023-02-27T08:01:54;6.60;44.00
3504;DHT22;1766;53.490;10.174;2023-02-27T08:03:56;6.70;44.10
3504;DHT22;1766;53.490;10.174;2023-02-27T08:05:58;6.70;44.10
3504;DHT22;1766;53.490;10.174;2023-02-27T08:07:59;6.90;44.30
3504;DHT22;1766;53.490;10.174;2023-02-27T08:10:02;6.90;44.20
3504;DHT22;1766;53.490;10.174;2023-02-27T08:12:04;7.00;44.30
3504;DHT22;1766;53.490;10.174;2023-02-27T08:14:07;7.10;44.30
3504;DHT22;1766;53.490;10.174;2023-02-27T08:16:09;7.20;44.30
3504;DHT22;1766;53.490;10.174;2023-02-27T08:18:10;7.30;44.40
3504;DHT22;1766;53.490;10.174;2023-02-27T08:20:13;7.30;44.40
3504;DHT22;1766;53.490;10.174;2023-02-27T08:22:15;7.40;44.60
3504;DHT22;1766;53.490;10.174;2023-02-27T08:24:17;7.50;44.60
3504;DHT22;1766;53.490;10.174;2023-02-27T08:26:19;7.50;44.60
3504;DHT22;1766;53.490;10.174;2023-02-27T08:28:20;7.60;44.70
3504;DHT22;1766;53.490;10.174;2023-02-27T08:30:24;7.70;44.90
3504;DHT22;1766;53.490;10.174;2023-02-27T08:32:26;7.70;44.80
3504;DHT22;1766;53.490;10.174;2023-02-27T08:34:27;7.80;44.90
3504;DHT22;1766;53.490;10.174;2023-02-27T08:36:30;7.90;45.00
3504;DHT22;1766;53.490;10.174;2023-02-27T08:38:31;7.90;44.90
3504;DHT22;1766;53.490;10.174;2023-02-27T08:40:33;8.10;45.10
3504;DHT22;1766;53.490;10.174;2023-02-27T08:42:35;8.10;45.00
3504;DHT22;1766;53.490;10.174;2023-02-27T08:44:37;8.20;45.10
3504;DHT22;1766;53.490;10.174;2023-02-27T08:46:40;8.20;45.00
3504;DHT22;1766;53.490;10.174;2023-02-27T08:48:42;8.30;45.10
3504;DHT22;1766;53.490;10.174;2023-02-27T08:50:45;8.40;45.10
3504;DHT22;1766;53.490;10.174;2023-02-27T08:52:47;8.30;45.10
3504;DHT22;1766;53.490;10.174;2023-02-27T08:54:49;8.40;45.00
3504;DHT22;1766;53.490;10.174;2023-02-27T08:56:50;8.50;45.00
3504;DHT22;1766;53.490;10.174;2023-02-27T08:58:53;8.60;45.10
3504;DHT22;1766;53.490;10.174;2023-02-27T09:00:54;8.70;45.30
3504;DHT22;1766;53.490;10.174;2023-02-27T09:02:57;8.70;45.10
3504;DHT22;1766;53.490;10.174;2023-02-27T09:05:00;8.70;45.20
3504;DHT22;1766;53.490;10.174;2023-02-27T09:07:02;8.80;45.20
3504;DHT22;1766;53.490;10.174;2023-02-27T09:09:04;8.90;45.30
3504;DHT22;1766;53.490;10.174;2023-02-27T09:11:06;8.90;45.30
3504;DHT22;1766;53.490;10.174;2023-02-27T09:13:08;9.10;45.00
3504;DHT22;1766;53.490;10.174;2023-02-27T09:15:11;9.00;45.20
3504;DHT22;1766;53.490;10.174;2023-02-27T09:17:12;9.10;45.30
3504;DHT22;1766;53.490;10.174;2023-02-27T09:19:15;9.20;45.30
3504;DHT22;1766;53.490;10.174;2023-02-27T09:21:17;9.20;45.30
3504;DHT22;1766;53.490;10.174;2023-02-27T09:23:21;9.30;45.40
3504;DHT22;1766;53.490;10.174;2023-02-27T09:25:22;9.40;45.40
3504;DHT22;1766;53.490;10.174;2023-02-27T09:27:27;9.40;45.50
3504;DHT22;1766;53.490;10.174;2023-02-27T09:29:29;9.50;45.50
3504;DHT22;1766;53.490;10.174;2023-02-27T09:31:30;9.50;45.40
3504;DHT22;1766;53.490;10.174;2023-02-27T09:33:33;9.60;45.30
3504;DHT22;1766;53.490;10.174;2023-02-27T09:35:38;9.60;45.40
3504;DHT22;1766;53.490;10.174;2023-02-27T09:37:39;9.70;45.40
3504;DHT22;1766;53.490;10.174;2023-02-27T09:39:41;9.80;45.50
3504;DHT22;1766;53.490;10.174;2023-02-27T09:41:49;9.80;45.50
3504;DHT22;1766;53.490;10.174;2023-02-27T09:43:53;9.80;45.40
3504;DHT22;1766;53.490;10.174;2023-02-27T09:45:56;9.90;45.40
3504;DHT22;1766;53.490;10.174;2023-02-27T09:48:02;10.00;44.60
3504;DHT22;1766;53.490;10.174;2023-02-27T09:50:21;10.00;44.50
3504;DHT22;1766;53.490;10.174;2023-02-27T09:52:32;10.10;44.50
3504;DHT22;1766;53.490;10.174;2023-02-27T09:54:35;10.10;44.40
3504;DHT22;1766;53.490;10.174;2023-02-27T09:56:43;10.20;44.30
3504;DHT22;1766;53.490;10.174;2023-02-27T09:58:52;10.20;44.20
3504;DHT22;1766;53.490;10.174;2023-02-27T10:01:01;10.30;43.90
3504;DHT22;1766;53.490;10.174;2023-02-27T10:03:17;10.30;44.00
3504;DHT22;1766;53.490;10.174;2023-02-27T10:05:31;10.30;44.10
3504;DHT22;1766;53.490;10.174;2023-02-27T10:07:41;10.40;44.10
3504;DHT22;1766;53.490;10.174;2023-02-27T10:09:57;10.50;44.10
3504;DHT22;1766;53.490;10.174;2023-02-27T10:12:27;10.50;44.00
3504;DHT22;1766;53.490;10.174;2023-02-27T10:14:41;10.60;44.10
3504;DHT22;1766;53.490;10.174;2023-02-27T10:16:45;10.70;44.30
3504;DHT22;1766;53.490;10.174;2023-02-27T10:18:54;10.80;44.30
3504;DHT22;1766;53.490;10.174;2023-02-27T10:20:59;10.80;43.90
3504;DHT22;1766;53.490;10.174;2023-02-27T10:23:10;11.00;44.10
3504;DHT22;1766;53.490;10.174;2023-02-27T10:25:15;11.00;43.90
3504;DHT22;1766;53.490;10.174;2023-02-27T10:27:20;11.20;43.90
3504;DHT22;1766;53.490;10.174;2023-02-27T10:29:27;11.20;43.80
3504;DHT22;1766;53.490;10.174;2023-02-27T10:31:32;11.40;43.90
3504;DHT22;1766;53.490;10.174;2023-02-27T10:33:37;11.50;43.80
3504;DHT22;1766;53.490;10.174;2023-02-27T10:35:43;11.60;43.70
3504;DHT22;1766;53.490;10.174;2023-02-27T10:37:48;11.70;43.50
3504;DHT22;1766;53.490;10.174;2023-02-27T10:39:58;11.90;43.50
3504;DHT22;1766;53.490;10.174;2023-02-27T10:42:05;11.90;43.30
3504;DHT22;1766;53.490;10.174;2023-02-27T10:44:11;12.20;43.20
3504;DHT22;1766;53.490;10.174;2023-02-27T10:46:23;12.40;43.10
3504;DHT22;1766;53.490;10.174;2023-02-27T10:48:26;12.50;42.80
3504;DHT22;1766;53.490;10.174;2023-02-27T10:50:30;12.70;42.30
3504;DHT22;1766;53.490;10.174;2023-02-27T10:52:33;12.70;42.00
3504;DHT22;1766;53.490;10.174;2023-02-27T10:54:48;12.80;41.40
3504;DHT22;1766;53.490;10.174;2023-02-27T10:56:53;12.80;41.10
3504;DHT22;1766;53.490;10.174;2023-02-27T10:59:05;12.90;41.10
3504;DHT22;1766;53.490;10.174;2023-02-27T11:01:09;13.00;40.90
3504;DHT22;1766;53.490;10.174;2023-02-27T11:03:20;13.20;40.80
3504;DHT22;1766;53.490;10.174;2023-02-27T11:05:26;13.30;40.00
3504;DHT22;1766;53.490;10.174;2023-02-27T11:07:32;13.40;39.50
3504;DHT22;1766;53.490;10.174;2023-02-27T11:09:35;13.40;39.30
3504;DHT22;1766;53.490;10.174;2023-02-27T11:11:37;13.50;38.90
3504;DHT22;1766;53.490;10.174;2023-02-27T11:13:42;13.50;38.70
3504;DHT22;1766;53.490;10.174;2023-02-27T11:16:01;13.50;38.50
3504;DHT22;1766;53.490;10.174;2023-02-27T11:18:23;13.60;38.20
3504;DHT22;1766;53.490;10.174;2023-02-27T11:20:33;13.70;38.00
3504;DHT22;1766;53.490;10.174;2023-02-27T11:22:36;13.80;37.70
3504;DHT22;1766;53.490;10.174;2023-02-27T11:24:38;13.90;37.70
3504;DHT22;1766;53.490;10.174;2023-02-27T11:26:53;14.00;37.50
3504;DHT22;1766;53.490;10.174;2023-02-27T11:29:14;14.00;37.20
3504;DHT22;1766;53.490;10.174;2023-02-27T11:31:21;14.10;37.00
3504;DHT22;1766;53.490;10.174;2023-02-27T11:33:23;14.30;36.80
3504;DHT22;1766;53.490;10.174;2023-02-27T11:35:29;14.40;36.60
3504;DHT22;1766;53.490;10.174;2023-02-27T11:37:33;14.50;36.50
3504;DHT22;1766;53.490;10.174;2023-02-27T11:39:38;14.50;35.40
3504;DHT22;1766;53.490;10.174;2023-02-27T11:41:40;14.50;35.30
3504;DHT22;1766;53.490;10.174;2023-02-27T11:43:47;14.40;35.00
3504;DHT22;1766;53.490;10.174;2023-02-27T11:45:55;14.40;34.90
3504;DHT22;1766;53.490;10.174;2023-02-27T11:48:01;14.30;34.20
3504;DHT22;1766;53.490;10.174;2023-02-27T11:50:26;14.30;34.20
3504;DHT22;1766;53.490;10.174;2023-02-27T11:52:43;14.40;35.00
3504;DHT22;1766;53.490;10.174;2023-02-27T11:54:53;14.40;34.30
3504;DHT22;1766;53.490;10.174;2023-02-27T11:56:59;14.40;33.80
3504;DHT22;1766;53.490;10.174;2023-02-27T11:59:09;14.50;33.60
3504;DHT22;1766;53.490;10.174;2023-02-27T12:01:22;14.60;33.70
3504;DHT22;1766;53.490;10.174;2023-02-27T12:03:30;14.70;33.70
3504;DHT22;1766;53.490;10.174;2023-02-27T12:05:39;14.70;33.60
3504;DHT22;1766;53.490;10.174;2023-02-27T12:07:48;15.30;33.80
3504;DHT22;1766;53.490;10.174;2023-02-27T12:09:58;15.70;33.20
3504;DHT22;1766;53.490;10.174;2023-02-27T12:12:08;16.50;32.60
3504;DHT22;1766;53.490;10.174;2023-02-27T12:14:20;18.00;31.90
3504;DHT22;1766;53.490;10.174;2023-02-27T12:16:31;19.20;29.80
3504;DHT22;1766;53.490;10.174;2023-02-27T12:18:39;20.00;29.30
3504;DHT22;1766;53.490;10.174;2023-02-27T12:20:49;20.70;28.70
3504;DHT22;1766;53.490;10.174;2023-02-27T12:22:53;21.40;28.10
3504;DHT22;1766;53.490;10.174;2023-02-27T12:25:01;21.90;28.20
3504;DHT22;1766;53.490;10.174;2023-02-27T12:27:15;22.40;28.00
3504;DHT22;1766;53.490;10.174;2023-02-27T12:29:26;22.80;27.60
3504;DHT22;1766;53.490;10.174;2023-02-27T12:31:41;23.10;27.40
3504;DHT22;1766;53.490;10.174;2023-02-27T12:33:51;23.20;26.50
3504;DHT22;1766;53.490;10.174;2023-02-27T12:36:00;23.30;26.30
3504;DHT22;1766;53.490;10.174;2023-02-27T12:38:03;23.20;25.50
3504;DHT22;1766;53.490;10.174;2023-02-27T12:40:05;23.10;25.30
3504;DHT22;1766;53.490;10.174;2023-02-27T12:42:19;23.00;25.40
3504;DHT22;1766;53.490;10.174;2023-02-27T12:44:40;23.00;25.20
3504;DHT22;1766;53.490;10.174;2023-02-27T12:47:00;22.60;24.50
3504;DHT22;1766;53.490;10.174;2023-02-27T12:49:20;22.50;24.60
3504;DHT22;1766;53.490;10.174;2023-02-27T12:51:38;22.60;24.60
3504;DHT22;1766;53.490;10.174;2023-02-27T12:53:57;22.70;24.20
3504;DHT22;1766;53.490;10.174;2023-02-27T12:56:14;22.80;24.00
3504;DHT22;1766;53.490;10.174;2023-02-27T12:58:27;23.30;24.00
3504;DHT22;1766;53.490;10.174;2023-02-27T13:00:43;23.90;23.60
3504;DHT22;1766;53.490;10.174;2023-02-27T13:02:53;24.70;23.20
3504;DHT22;1766;53.490;10.174;2023-02-27T13:05:03;25.30;22.60
3504;DHT22;1766;53.490;10.174;2023-02-27T13:07:22;25.80;22.10
3504;DHT22;1766;53.490;10.174;2023-02-27T13:09:32;25.80;21.70
3504;DHT22;1766;53.490;10.174;2023-02-27T13:11:46;25.70;21.70
3504;DHT22;1766;53.490;10.174;2023-02-27T13:13:55;25.50;21.40
3504;DHT22;1766;53.490;10.174;2023-02-27T13:16:04;25.20;21.40
3504;DHT22;1766;53.490;10.174;2023-02-27T13:18:21;24.90;21.20
3504;DHT22;1766;53.490;10.174;2023-02-27T13:20:32;24.60;21.20
3504;DHT22;1766;53.490;10.174;2023-02-27T13:22:43;24.20;21.70
3504;DHT22;1766;53.490;10.174;2023-02-27T13:24:50;23.90;21.20
3504;DHT22;1766;53.490;10.174;2023-02-27T13:26:59;23.70;21.40
3504;DHT22;1766;53.490;10.174;2023-02-27T13:29:05;23.60;21.50
3504;DHT22;1766;53.490;10.174;2023-02-27T13:31:13;23.60;21.40
3504;DHT22;1766;53.490;10.174;2023-02-27T13:33:29;23.50;21.30
3504;DHT22;1766;53.490;10.174;2023-02-27T13:35:44;23.50;21.10
3504;DHT22;1766;53.490;10.174;2023-02-27T13:37:51;23.50;21.20
3504;DHT22;1766;53.490;10.174;2023-02-27T13:39:55;23.50;21.20
3504;DHT22;1766;53.490;10.174;2023-02-27T13:44:51;23.10;21.00
3504;DHT22;1766;53.490;10.174;2023-02-27T13:46:54;23.10;21.20
3504;DHT22;1766;53.490;10.174;2023-02-27T13:49:41;23.30;21.10